createdAt,value
2023-01-25T00:01:30.796Z,3.76
2023-01-25T00:03:43.430Z,3.74
2023-01-25T00:06:01.103Z,3.68
2023-01-25T00:08:13.770Z,3.67
2023-01-25T00:10:26.401Z,3.64
2023-01-25T00:12:41.401Z,3.66
2023-01-25T00:14:53.941Z,3.72
2023-01-25T00:17:06.602Z,3.75
2023-01-25T00:19:19.418Z,3.75
2023-01-25T00:21:32.476Z,3.76
2023-01-25T00:23:45.125Z,3.82
2023-01-25T00:25:58.973Z,3.91
2023-01-25T00:28:11.811Z,3.94
2023-01-25T00:30:24.361Z,3.94
2023-01-25T00:32:47.300Z,3.90
2023-01-25T00:34:59.985Z,3.91
2023-01-25T00:37:30.502Z,3.91
2023-01-25T00:39:43.081Z,3.87
2023-01-25T00:41:55.792Z,3.80
2023-01-25T00:44:08.455Z,3.73
2023-01-25T00:46:21.193Z,3.73
2023-01-25T00:48:33.870Z,3.79
2023-01-25T00:50:46.372Z,3.83
2023-01-25T00:52:58.940Z,3.85
2023-01-25T00:55:11.478Z,3.84
2023-01-25T00:57:24.034Z,3.83
2023-01-25T00:59:36.724Z,3.82
2023-01-25T01:01:50.291Z,3.80
2023-01-25T01:04:04.484Z,3.78
2023-01-25T01:06:18.687Z,3.82
2023-01-25T01:08:34.132Z,3.87
2023-01-25T01:10:46.682Z,3.90
2023-01-25T01:12:59.289Z,3.86
2023-01-25T01:15:11.828Z,3.80
2023-01-25T01:17:24.765Z,3.76
2023-01-25T01:19:37.362Z,3.65
2023-01-25T01:21:50.115Z,3.61
2023-01-25T01:24:02.808Z,3.63
2023-01-25T01:26:19.505Z,3.63
2023-01-25T01:28:33.841Z,3.62
2023-01-25T01:30:46.419Z,3.62
2023-01-25T01:32:59.278Z,3.62
2023-01-25T01:35:11.858Z,3.60
2023-01-25T01:37:24.417Z,3.60
2023-01-25T01:39:37.053Z,3.63
2023-01-25T01:41:49.757Z,3.63
2023-01-25T01:44:02.847Z,3.61
2023-01-25T01:46:32.707Z,3.61
2023-01-25T01:48:51.281Z,3.59
2023-01-25T01:51:14.525Z,3.60
2023-01-25T01:53:29.451Z,3.61
2023-01-25T01:55:42.825Z,3.70
2023-01-25T01:57:58.506Z,3.79
2023-01-25T02:00:18.477Z,3.86
2023-01-25T02:02:31.247Z,3.89
2023-01-25T02:04:48.663Z,3.86
2023-01-25T02:07:11.653Z,3.83
2023-01-25T02:09:28.490Z,3.82
2023-01-25T02:11:41.822Z,3.79
2023-01-25T02:13:55.876Z,3.77
2023-01-25T02:16:15.775Z,3.76
2023-01-25T02:18:29.194Z,3.73
2023-01-25T02:20:44.778Z,3.65
2023-01-25T02:23:28.785Z,3.65
2023-01-25T02:25:41.596Z,3.62
2023-01-25T02:28:01.226Z,3.63
2023-01-25T02:30:13.999Z,3.58
2023-01-25T02:32:26.560Z,3.52
2023-01-25T02:34:39.087Z,3.47
2023-01-25T02:36:51.775Z,3.44
2023-01-25T02:39:08.709Z,3.46
2023-01-25T02:41:33.113Z,3.51
2023-01-25T02:43:45.682Z,3.58
2023-01-25T02:46:14.556Z,3.62
2023-01-25T02:48:27.163Z,3.61
2023-01-25T02:50:39.731Z,3.59
2023-01-25T02:52:52.264Z,3.60
2023-01-25T02:55:05.808Z,3.63
2023-01-25T02:57:18.619Z,3.65
2023-01-25T02:59:31.146Z,3.69
2023-01-25T03:01:44.008Z,3.73
2023-01-25T03:03:56.708Z,3.79
2023-01-25T03:06:09.527Z,3.85
2023-01-25T03:08:22.064Z,3.85
2023-01-25T03:10:34.642Z,3.84
2023-01-25T03:12:47.177Z,3.78
2023-01-25T03:14:59.690Z,3.73
2023-01-25T03:17:12.687Z,3.66
2023-01-25T03:19:25.327Z,3.63
2023-01-25T03:21:40.975Z,3.56
2023-01-25T03:23:59.503Z,3.51
2023-01-25T03:26:20.672Z,3.47
2023-01-25T03:28:33.276Z,3.48
2023-01-25T03:30:49.951Z,3.49
2023-01-25T03:33:02.627Z,3.48
2023-01-25T03:35:15.200Z,3.47
2023-01-25T03:37:30.359Z,3.46
2023-01-25T03:39:42.915Z,3.44
2023-01-25T03:41:55.449Z,3.40
2023-01-25T03:44:11.405Z,3.36
2023-01-25T03:46:23.962Z,3.35
2023-01-25T03:48:36.491Z,3.34
2023-01-25T03:50:53.954Z,3.33
2023-01-25T03:53:10.250Z,3.35
2023-01-25T03:55:22.782Z,3.36
2023-01-25T03:57:35.362Z,3.36
2023-01-25T03:59:47.854Z,3.34
2023-01-25T04:02:00.485Z,3.38
2023-01-25T04:04:13.067Z,3.38
2023-01-25T04:06:25.623Z,3.32
2023-01-25T04:08:38.218Z,3.28
2023-01-25T04:10:55.250Z,3.26
2023-01-25T04:13:07.849Z,3.23
2023-01-25T04:15:20.567Z,3.26
2023-01-25T04:17:33.177Z,3.32
2023-01-25T04:19:45.726Z,3.38
2023-01-25T04:21:58.259Z,3.43
2023-01-25T04:24:10.854Z,3.46
2023-01-25T04:26:23.624Z,3.46
2023-01-25T04:28:36.367Z,3.44
2023-01-25T04:30:49.104Z,3.43
2023-01-25T04:33:05.316Z,3.39
2023-01-25T04:35:20.373Z,3.39
2023-01-25T04:37:32.889Z,3.40
2023-01-25T04:39:45.567Z,3.44
2023-01-25T04:41:58.140Z,3.45
2023-01-25T04:44:10.912Z,3.41
2023-01-25T04:46:23.503Z,3.39
2023-01-25T04:48:36.132Z,3.35
2023-01-25T04:50:48.742Z,3.31
2023-01-25T04:53:01.332Z,3.27
2023-01-25T04:55:14.205Z,3.22
2023-01-25T04:57:26.756Z,3.24
2023-01-25T04:59:39.332Z,3.28
2023-01-25T05:01:51.855Z,3.33
2023-01-25T05:04:04.382Z,3.41
2023-01-25T05:06:17.070Z,3.49
2023-01-25T05:08:29.610Z,3.52
2023-01-25T05:10:42.111Z,3.49
2023-01-25T05:12:54.679Z,3.42
2023-01-25T05:15:08.158Z,3.31
2023-01-25T05:17:21.008Z,3.27
2023-01-25T05:19:34.318Z,3.28
2023-01-25T05:22:07.300Z,3.31
2023-01-25T05:24:19.952Z,3.28
2023-01-25T05:26:51.428Z,3.31
2023-01-25T05:29:04.050Z,3.31
2023-01-25T05:31:16.688Z,3.29
2023-01-25T05:33:29.638Z,3.22
2023-01-25T05:35:43.469Z,3.19
2023-01-25T05:38:00.123Z,3.22
2023-01-25T05:40:13.040Z,3.31
2023-01-25T05:42:25.668Z,3.41
2023-01-25T05:44:38.719Z,3.49
2023-01-25T05:46:51.545Z,3.56
2023-01-25T05:49:04.514Z,3.53
2023-01-25T05:51:17.089Z,3.54
2023-01-25T05:53:29.689Z,3.56
2023-01-25T05:55:42.316Z,3.60
2023-01-25T05:57:56.946Z,3.65
2023-01-25T06:00:10.887Z,3.59
2023-01-25T06:02:23.548Z,3.57
2023-01-25T06:04:36.253Z,3.54
2023-01-25T06:06:49.967Z,3.60
2023-01-25T06:09:02.699Z,3.63
2023-01-25T06:11:19.249Z,3.64
2023-01-25T06:13:31.819Z,3.66
2023-01-25T06:15:54.082Z,3.67
2023-01-25T06:18:06.651Z,3.75
2023-01-25T06:20:19.187Z,3.77
2023-01-25T06:22:31.737Z,3.76
2023-01-25T06:24:44.368Z,3.72
2023-01-25T06:26:56.940Z,3.72
2023-01-25T06:29:09.725Z,3.73
2023-01-25T06:31:22.363Z,3.69
2023-01-25T06:33:35.299Z,3.66
2023-01-25T06:35:47.901Z,3.64
2023-01-25T06:38:01.299Z,3.64
2023-01-25T06:40:13.995Z,3.63
2023-01-25T06:42:26.598Z,3.61
2023-01-25T06:44:39.258Z,3.61
2023-01-25T06:46:51.949Z,3.60
2023-01-25T06:49:04.556Z,3.58
2023-01-25T06:51:17.425Z,3.63
2023-01-25T06:53:32.274Z,3.68
2023-01-25T06:55:44.848Z,3.68
2023-01-25T06:58:00.179Z,3.69
2023-01-25T07:00:13.684Z,3.69
2023-01-25T07:02:26.315Z,3.69
2023-01-25T07:04:38.945Z,3.70
2023-01-25T07:06:51.611Z,3.73
2023-01-25T07:09:06.534Z,3.75
2023-01-25T07:11:19.708Z,3.75
2023-01-25T07:13:35.959Z,3.77
2023-01-25T07:15:56.231Z,3.71
2023-01-25T07:18:16.262Z,3.63
2023-01-25T07:20:29.313Z,3.57
2023-01-25T07:22:42.005Z,3.49
2023-01-25T07:24:57.842Z,3.45
2023-01-25T07:27:10.381Z,3.44
2023-01-25T07:29:23.123Z,3.48
2023-01-25T07:31:35.728Z,3.51
2023-01-25T07:33:50.143Z,3.51
2023-01-25T07:36:05.631Z,3.50
2023-01-25T07:38:18.157Z,3.51
2023-01-25T07:40:30.953Z,3.54
2023-01-25T07:42:43.780Z,3.52
2023-01-25T07:44:56.376Z,3.51
2023-01-25T07:47:08.933Z,3.53
2023-01-25T07:49:21.539Z,3.57
2023-01-25T07:51:34.305Z,3.55
2023-01-25T07:53:47.610Z,3.49
2023-01-25T07:56:00.158Z,3.43
2023-01-25T07:58:12.800Z,3.38
2023-01-25T08:00:25.310Z,3.35
2023-01-25T08:02:37.877Z,3.37
2023-01-25T08:04:51.454Z,3.41
2023-01-25T08:07:04.110Z,3.38
2023-01-25T08:09:20.063Z,3.33
2023-01-25T08:11:32.870Z,3.30
2023-01-25T08:13:49.739Z,3.29
2023-01-25T08:16:02.501Z,3.29
2023-01-25T08:18:15.079Z,3.31
2023-01-25T08:20:27.675Z,3.32
2023-01-25T08:22:40.225Z,3.30
2023-01-25T08:24:52.828Z,3.30
2023-01-25T08:27:05.349Z,3.29
2023-01-25T08:29:18.256Z,3.30
2023-01-25T08:31:33.114Z,3.31
2023-01-25T08:33:46.873Z,3.31
2023-01-25T08:35:59.587Z,3.34
2023-01-25T08:38:12.085Z,3.33
2023-01-25T08:40:24.881Z,3.35
2023-01-25T08:42:37.432Z,3.40
2023-01-25T08:44:50.059Z,3.42
2023-01-25T08:47:02.711Z,3.45
2023-01-25T08:49:15.838Z,3.50
2023-01-25T08:51:29.705Z,3.52
2023-01-25T08:53:43.031Z,3.51
2023-01-25T08:55:55.863Z,3.51
2023-01-25T08:58:13.185Z,3.51
2023-01-25T09:00:25.871Z,3.53
2023-01-25T09:02:38.473Z,3.50
2023-01-25T09:04:51.054Z,3.40
2023-01-25T09:07:04.104Z,3.29
2023-01-25T09:09:16.695Z,3.22
2023-01-25T09:11:29.273Z,3.19
2023-01-25T09:13:45.188Z,3.21
2023-01-25T09:16:02.541Z,3.26
2023-01-25T09:18:15.491Z,3.30
2023-01-25T09:20:28.726Z,3.32
2023-01-25T09:22:42.013Z,3.34
2023-01-25T09:24:56.425Z,3.38
2023-01-25T09:27:11.939Z,3.42
2023-01-25T09:29:24.617Z,3.44
2023-01-25T09:31:40.909Z,3.48
2023-01-25T09:33:53.688Z,3.50
2023-01-25T09:36:07.401Z,3.48
2023-01-25T09:38:21.276Z,3.44
2023-01-25T09:40:39.311Z,3.45
2023-01-25T09:43:04.665Z,3.47
2023-01-25T09:45:32.189Z,3.47
2023-01-25T09:48:20.542Z,3.46
2023-01-25T09:50:38.317Z,3.45
2023-01-25T09:53:19.671Z,3.49
2023-01-25T09:55:33.194Z,3.57
2023-01-25T09:57:48.184Z,3.70
2023-01-25T10:00:09.625Z,3.81
2023-01-25T10:02:39.628Z,3.87
2023-01-25T10:04:57.305Z,3.88
2023-01-25T10:07:28.053Z,3.95
2023-01-25T10:09:49.597Z,3.98
2023-01-25T10:12:12.128Z,4.00
2023-01-25T10:14:24.785Z,4.00
2023-01-25T10:16:49.982Z,4.01
2023-01-25T10:19:27.115Z,4.04
2023-01-25T10:21:47.111Z,4.09
2023-01-25T10:24:21.919Z,4.11
2023-01-25T10:26:36.467Z,4.12
2023-01-25T10:29:07.676Z,4.23
2023-01-25T10:31:35.371Z,4.27
2023-01-25T10:33:49.137Z,4.29
2023-01-25T10:36:04.495Z,4.29
2023-01-25T10:38:21.600Z,4.30
2023-01-25T10:40:49.116Z,4.31
2023-01-25T10:43:12.182Z,4.29
2023-01-25T10:45:27.033Z,4.23
2023-01-25T10:47:44.028Z,4.20
2023-01-25T10:49:59.808Z,4.18
2023-01-25T10:52:13.867Z,4.14
2023-01-25T10:54:27.781Z,4.19
2023-01-25T10:56:43.754Z,4.20
2023-01-25T10:59:09.043Z,4.23
2023-01-25T11:01:28.532Z,4.23
2023-01-25T11:03:44.799Z,4.26
2023-01-25T11:05:57.563Z,4.32
2023-01-25T11:08:26.029Z,4.37
2023-01-25T11:10:45.817Z,4.36
2023-01-25T11:13:13.796Z,4.33
2023-01-25T11:15:26.587Z,4.28
2023-01-25T11:17:39.244Z,4.19
2023-01-25T11:20:07.767Z,4.14
2023-01-25T11:22:20.523Z,4.14
2023-01-25T11:24:35.844Z,4.22
2023-01-25T11:26:48.500Z,4.33
2023-01-25T11:29:19.098Z,4.44
2023-01-25T11:31:31.763Z,4.53
2023-01-25T11:33:44.490Z,4.57
2023-01-25T11:36:15.817Z,4.58
2023-01-25T11:38:28.974Z,4.54
2023-01-25T11:40:59.818Z,4.49
2023-01-25T11:43:31.081Z,4.40
2023-01-25T11:46:02.655Z,4.39
2023-01-25T11:48:21.824Z,4.36
2023-01-25T11:50:47.071Z,4.36
2023-01-25T11:53:30.455Z,4.40
2023-01-25T11:56:18.559Z,4.42
2023-01-25T11:58:50.190Z,4.39
2023-01-25T12:01:09.026Z,4.39
2023-01-25T12:03:55.415Z,4.44
2023-01-25T12:06:55.191Z,4.49
2023-01-25T12:09:27.130Z,4.51
2023-01-25T12:11:54.886Z,4.45
2023-01-25T12:14:58.932Z,4.45
2023-01-25T12:17:30.143Z,4.42
2023-01-25T12:19:57.461Z,4.49
2023-01-25T12:22:31.628Z,4.53
2023-01-25T12:25:06.200Z,4.54
2023-01-25T12:27:40.535Z,4.53
2023-01-25T12:30:21.373Z,4.50
2023-01-25T12:32:40.481Z,4.42
2023-01-25T12:35:24.496Z,4.40
2023-01-25T12:37:41.465Z,4.33
2023-01-25T12:40:08.792Z,4.35
2023-01-25T12:42:26.443Z,4.33
2023-01-25T12:44:44.968Z,4.36
2023-01-25T12:47:05.679Z,4.39
2023-01-25T12:49:34.389Z,4.39
2023-01-25T12:51:48.467Z,4.34
2023-01-25T12:54:10.480Z,4.33
2023-01-25T12:56:49.005Z,4.32
2023-01-25T12:59:21.389Z,4.28
2023-01-25T13:01:43.093Z,4.29
2023-01-25T13:04:15.160Z,4.31
2023-01-25T13:06:39.062Z,4.35
2023-01-25T13:08:54.946Z,4.34
2023-01-25T13:11:18.237Z,4.33
2023-01-25T13:13:31.392Z,4.35
2023-01-25T13:15:45.660Z,4.35
2023-01-25T13:17:58.305Z,4.36
2023-01-25T13:20:40.121Z,4.40
2023-01-25T13:22:58.350Z,4.35
2023-01-25T13:25:16.909Z,4.31
2023-01-25T13:27:32.132Z,4.26
2023-01-25T13:29:47.924Z,4.21
2023-01-25T13:32:01.848Z,4.16
2023-01-25T13:34:36.219Z,4.14
2023-01-25T13:36:53.543Z,4.11
2023-01-25T13:39:24.821Z,4.12
2023-01-25T13:41:58.391Z,4.14
2023-01-25T13:44:31.563Z,4.11
2023-01-25T13:46:44.365Z,4.14
2023-01-25T13:49:02.768Z,4.18
2023-01-25T13:51:18.352Z,4.23
2023-01-25T13:53:35.179Z,4.26
2023-01-25T13:55:53.946Z,4.30
2023-01-25T13:58:26.625Z,4.33
2023-01-25T14:00:48.235Z,4.31
2023-01-25T14:03:01.028Z,4.31
2023-01-25T14:05:22.066Z,4.32
2023-01-25T14:07:36.936Z,4.33
2023-01-25T14:09:50.158Z,4.34
2023-01-25T14:12:04.264Z,4.33
2023-01-25T14:14:28.711Z,4.32
2023-01-25T14:16:41.358Z,4.29
2023-01-25T14:18:54.273Z,4.29
2023-01-25T14:21:17.378Z,4.28
2023-01-25T14:23:30.543Z,4.22
2023-01-25T14:25:43.123Z,4.24
2023-01-25T14:27:59.070Z,4.23
2023-01-25T14:30:22.690Z,4.19
2023-01-25T14:32:36.924Z,4.17
2023-01-25T14:34:49.462Z,4.17
2023-01-25T14:37:17.769Z,4.19
2023-01-25T14:39:30.332Z,4.14
2023-01-25T14:41:51.647Z,4.14
2023-01-25T14:44:15.042Z,4.14
2023-01-25T14:46:31.881Z,4.14
2023-01-25T14:48:45.055Z,4.11
2023-01-25T14:51:09.839Z,4.09
2023-01-25T14:53:25.088Z,4.06
2023-01-25T14:55:37.688Z,4.01
2023-01-25T14:57:50.644Z,3.98
2023-01-25T15:00:22.628Z,3.96
2023-01-25T15:02:44.674Z,3.95
2023-01-25T15:05:14.495Z,3.95
2023-01-25T15:07:42.510Z,3.96
2023-01-25T15:10:22.198Z,3.95
2023-01-25T15:12:34.703Z,3.93
2023-01-25T15:14:50.277Z,3.94
2023-01-25T15:17:02.818Z,3.98
2023-01-25T15:19:29.895Z,4.00
2023-01-25T15:21:42.803Z,3.95
2023-01-25T15:23:57.861Z,3.92
2023-01-25T15:26:30.423Z,3.92
2023-01-25T15:28:42.983Z,3.90
2023-01-25T15:30:58.218Z,3.93
2023-01-25T15:33:19.310Z,3.95
2023-01-25T15:35:32.493Z,3.95
2023-01-25T15:37:49.098Z,3.93
2023-01-25T15:40:01.995Z,3.92
2023-01-25T15:42:14.669Z,3.93
2023-01-25T15:44:27.202Z,3.96
2023-01-25T15:46:42.473Z,4.00
2023-01-25T15:48:55.431Z,4.03
2023-01-25T15:51:08.932Z,4.02
2023-01-25T15:53:21.466Z,3.99
2023-01-25T15:55:34.348Z,3.97
2023-01-25T15:57:47.129Z,3.94
2023-01-25T16:00:02.316Z,3.91
2023-01-25T16:02:15.286Z,3.90
2023-01-25T16:04:28.015Z,3.91
2023-01-25T16:06:47.169Z,3.92
2023-01-25T16:09:00.398Z,3.92
2023-01-25T16:11:12.998Z,3.92
2023-01-25T16:13:25.764Z,3.92
2023-01-25T16:15:39.664Z,3.88
2023-01-25T16:17:52.214Z,3.83
2023-01-25T16:20:05.375Z,3.84
2023-01-25T16:22:18.399Z,3.85
2023-01-25T16:24:31.036Z,3.86
2023-01-25T16:26:50.997Z,3.89
2023-01-25T16:29:03.632Z,3.87
2023-01-25T16:31:31.207Z,3.88
2023-01-25T16:33:44.992Z,3.86
2023-01-25T16:36:12.608Z,3.84
2023-01-25T16:38:25.232Z,3.77
2023-01-25T16:40:39.653Z,3.74
2023-01-25T16:42:52.721Z,3.72
2023-01-25T16:45:05.944Z,3.67
2023-01-25T16:47:18.525Z,3.67
2023-01-25T16:49:32.892Z,3.69
2023-01-25T16:51:45.645Z,3.71
2023-01-25T16:53:58.615Z,3.75
2023-01-25T16:56:19.812Z,3.79
2023-01-25T16:58:32.361Z,3.78
2023-01-25T17:00:46.170Z,3.75
2023-01-25T17:02:59.799Z,3.74
2023-01-25T17:05:12.620Z,3.80
2023-01-25T17:07:25.171Z,3.86
2023-01-25T17:09:39.951Z,3.86
2023-01-25T17:11:54.356Z,3.81
2023-01-25T17:14:08.372Z,3.78
2023-01-25T17:16:22.866Z,3.76
2023-01-25T17:18:35.432Z,3.77
2023-01-25T17:21:06.843Z,3.77
2023-01-25T17:23:19.397Z,3.76
2023-01-25T17:25:35.472Z,3.80
2023-01-25T17:27:48.014Z,3.82
2023-01-25T17:30:00.730Z,3.78
2023-01-25T17:32:13.214Z,3.76
2023-01-25T17:34:25.737Z,3.71
2023-01-25T17:36:38.297Z,3.67
2023-01-25T17:38:50.887Z,3.67
2023-01-25T17:41:08.473Z,3.68
2023-01-25T17:43:21.201Z,3.65
2023-01-25T17:45:38.433Z,3.62
2023-01-25T17:47:51.014Z,3.61
2023-01-25T17:50:03.976Z,3.61
2023-01-25T17:52:16.544Z,3.63
2023-01-25T17:54:29.066Z,3.65
2023-01-25T17:56:41.888Z,3.62
2023-01-25T17:58:55.112Z,3.62
2023-01-25T18:01:16.158Z,3.61
2023-01-25T18:03:29.633Z,3.61
2023-01-25T18:05:44.671Z,3.61
2023-01-25T18:07:57.288Z,3.56
2023-01-25T18:10:11.176Z,3.51
2023-01-25T18:12:24.318Z,3.47
2023-01-25T18:14:36.969Z,3.47
2023-01-25T18:16:51.582Z,3.49
2023-01-25T18:19:04.903Z,3.50
2023-01-25T18:21:24.070Z,3.54
2023-01-25T18:23:38.343Z,3.57
2023-01-25T18:25:50.880Z,3.63
2023-01-25T18:28:03.592Z,3.66
2023-01-25T18:30:49.466Z,3.68
2023-01-25T18:33:02.648Z,3.61
2023-01-25T18:35:15.231Z,3.55
2023-01-25T18:37:33.468Z,3.52
2023-01-25T18:39:51.466Z,3.46
2023-01-25T18:42:04.416Z,3.43
2023-01-25T18:44:17.018Z,3.44
2023-01-25T18:46:30.322Z,3.43
2023-01-25T18:48:45.409Z,3.39
2023-01-25T18:51:00.161Z,3.36
2023-01-25T18:53:12.674Z,3.36
2023-01-25T18:55:26.404Z,3.39
2023-01-25T18:57:39.580Z,3.38
2023-01-25T18:59:52.281Z,3.38
2023-01-25T19:02:05.278Z,3.38
2023-01-25T19:04:18.074Z,3.38
2023-01-25T19:06:30.634Z,3.39
2023-01-25T19:08:46.394Z,3.41
2023-01-25T19:11:05.940Z,3.41
2023-01-25T19:13:18.494Z,3.41
2023-01-25T19:15:31.030Z,3.44
2023-01-25T19:17:43.722Z,3.45
2023-01-25T19:19:56.309Z,3.44
2023-01-25T19:22:08.829Z,3.44
2023-01-25T19:24:21.409Z,3.46
2023-01-25T19:26:34.072Z,3.46
2023-01-25T19:28:47.531Z,3.49
2023-01-25T19:31:08.596Z,3.49
2023-01-25T19:33:21.296Z,3.45
2023-01-25T19:35:33.836Z,3.45
2023-01-25T19:37:46.464Z,3.45
2023-01-25T19:39:59.035Z,3.43
2023-01-25T19:42:11.580Z,3.43
2023-01-25T19:44:25.114Z,3.41
2023-01-25T19:46:38.162Z,3.36
2023-01-25T19:48:52.460Z,3.35
2023-01-25T19:51:08.774Z,3.35
2023-01-25T19:53:21.300Z,3.29
2023-01-25T19:55:33.919Z,3.30
2023-01-25T19:57:46.452Z,3.34
2023-01-25T19:59:59.056Z,3.34
2023-01-25T20:02:12.305Z,3.35
2023-01-25T20:04:25.142Z,3.33
2023-01-25T20:06:37.904Z,3.32
2023-01-25T20:08:51.509Z,3.31
2023-01-25T20:11:11.247Z,3.29
2023-01-25T20:13:23.807Z,3.29
2023-01-25T20:15:36.437Z,3.30
2023-01-25T20:17:48.972Z,3.27
2023-01-25T20:20:01.643Z,3.28
2023-01-25T20:22:14.321Z,3.29
2023-01-25T20:24:27.157Z,3.29
2023-01-25T20:26:42.900Z,3.28
2023-01-25T20:28:58.006Z,3.26
2023-01-25T20:31:33.814Z,3.27
2023-01-25T20:33:46.563Z,3.22
2023-01-25T20:36:04.101Z,3.20
2023-01-25T20:38:17.050Z,3.17
2023-01-25T20:40:29.627Z,3.15
2023-01-25T20:42:42.189Z,3.15
2023-01-25T20:44:54.745Z,3.15
2023-01-25T20:47:07.644Z,3.11
2023-01-25T20:49:20.282Z,3.06
2023-01-25T20:51:33.983Z,3.04
2023-01-25T20:53:47.607Z,3.01
2023-01-25T20:56:00.120Z,3.01
2023-01-25T20:58:12.631Z,3.00
2023-01-25T21:00:25.652Z,3.04
2023-01-25T21:02:38.890Z,3.05
2023-01-25T21:04:51.454Z,3.02
2023-01-25T21:07:04.034Z,3.00
2023-01-25T21:09:16.703Z,3.00
2023-01-25T21:11:29.613Z,2.99
2023-01-25T21:13:43.841Z,2.94
2023-01-25T21:16:21.938Z,2.91
2023-01-25T21:18:40.193Z,2.88
2023-01-25T21:20:52.750Z,2.86
2023-01-25T21:23:05.380Z,2.84
2023-01-25T21:25:17.974Z,2.84
2023-01-25T21:27:30.861Z,2.86
2023-01-25T21:29:43.467Z,2.86
2023-01-25T21:31:56.095Z,2.87
2023-01-25T21:34:09.871Z,2.88
2023-01-25T21:36:22.960Z,2.92
2023-01-25T21:38:36.339Z,2.95
2023-01-25T21:40:48.975Z,2.94
2023-01-25T21:43:01.572Z,2.94
2023-01-25T21:45:33.054Z,2.95
2023-01-25T21:47:45.612Z,2.95
2023-01-25T21:50:17.201Z,2.95
2023-01-25T21:52:29.797Z,2.95
2023-01-25T21:54:42.404Z,2.97
2023-01-25T21:56:56.671Z,2.99
2023-01-25T21:59:09.313Z,3.03
2023-01-25T22:01:22.658Z,3.03
2023-01-25T22:03:37.772Z,3.02
2023-01-25T22:05:54.812Z,3.04
2023-01-25T22:08:07.670Z,3.07
2023-01-25T22:10:20.361Z,3.09
2023-01-25T22:12:32.929Z,3.07
2023-01-25T22:14:45.517Z,3.04
2023-01-25T22:16:58.216Z,3.04
2023-01-25T22:19:11.155Z,3.03
2023-01-25T22:21:30.995Z,3.02
2023-01-25T22:23:44.716Z,2.99
2023-01-25T22:26:05.720Z,3.02
2023-01-25T22:28:19.447Z,3.01
2023-01-25T22:30:32.058Z,3.01
2023-01-25T22:32:44.686Z,3.02
2023-01-25T22:34:57.255Z,3.01
2023-01-25T22:37:12.927Z,2.96
2023-01-25T22:39:25.527Z,2.91
2023-01-25T22:41:38.896Z,2.96
2023-01-25T22:43:52.307Z,3.00
2023-01-25T22:46:06.414Z,3.01
2023-01-25T22:48:20.012Z,2.99
2023-01-25T22:50:33.015Z,3.01
2023-01-25T22:52:45.915Z,3.04
2023-01-25T22:54:58.501Z,3.08
2023-01-25T22:57:11.129Z,3.11
2023-01-25T22:59:23.689Z,3.13
2023-01-25T23:01:36.365Z,3.18
2023-01-25T23:03:49.544Z,3.19
2023-01-25T23:06:04.152Z,3.15
2023-01-25T23:08:16.676Z,3.12
2023-01-25T23:10:29.270Z,3.13
2023-01-25T23:12:41.865Z,3.11
2023-01-25T23:14:54.471Z,3.11
2023-01-25T23:17:25.915Z,3.11
2023-01-25T23:19:38.439Z,3.10
2023-01-25T23:21:51.004Z,3.08
2023-01-25T23:24:04.403Z,3.06
2023-01-25T23:26:17.619Z,3.05
2023-01-25T23:28:31.156Z,3.05
2023-01-25T23:30:43.781Z,3.06
2023-01-25T23:32:56.365Z,3.04
2023-01-25T23:35:09.208Z,3.03
2023-01-25T23:37:22.871Z,3.06
2023-01-25T23:39:35.540Z,3.06
2023-01-25T23:41:49.760Z,3.10
2023-01-25T23:44:02.346Z,3.16
2023-01-25T23:46:15.947Z,3.21
2023-01-25T23:48:28.681Z,3.21
2023-01-25T23:50:41.211Z,3.24
2023-01-25T23:52:53.770Z,3.26
2023-01-25T23:55:06.877Z,3.24
2023-01-25T23:57:20.132Z,3.22
2023-01-25T23:59:33.802Z,3.18
